createdAt,value
2023-04-15T00:00:13.762Z,7.10
2023-04-15T00:03:19.301Z,7.10
2023-04-15T00:06:24.813Z,7.60
2023-04-15T00:09:29.661Z,7.50
2023-04-15T00:12:34.058Z,7.82
2023-04-15T00:15:38.337Z,7.05
2023-04-15T00:18:42.888Z,8.55
2023-04-15T00:21:47.309Z,8.68
2023-04-15T00:24:54.161Z,8.05
2023-04-15T00:27:58.307Z,8.02
2023-04-15T00:31:03.093Z,9.45
2023-04-15T00:34:08.238Z,9.05
2023-04-15T00:37:12.777Z,8.30
2023-04-15T00:40:19.748Z,9.23
2023-04-15T00:43:24.350Z,9.75
2023-04-15T00:49:35.338Z,10.55
2023-04-15T00:52:40.680Z,10.00
2023-04-15T00:55:45.588Z,10.65
2023-04-15T00:58:51.404Z,11.20
2023-04-15T01:01:56.483Z,11.30
2023-04-15T01:05:01.368Z,11.75
2023-04-15T01:08:06.295Z,12.38
2023-04-15T01:11:12.603Z,11.07
2023-04-15T01:14:16.653Z,11.93
2023-04-15T01:17:21.503Z,12.73
2023-04-15T01:20:26.194Z,13.40
2023-04-15T01:23:31.330Z,12.68
2023-04-15T01:26:37.890Z,13.52
2023-04-15T01:29:43.122Z,13.40
2023-04-15T01:32:47.482Z,13.90
2023-04-15T01:35:51.634Z,15.77
2023-04-15T01:38:57.327Z,14.63
2023-04-15T01:42:01.806Z,15.80
2023-04-15T01:45:07.180Z,15.95
2023-04-15T01:48:12.338Z,16.67
2023-04-15T01:51:17.220Z,16.23
2023-04-15T01:54:21.837Z,16.90
2023-04-15T01:57:26.387Z,17.70
2023-04-15T02:00:32.561Z,16.60
2023-04-15T02:03:38.913Z,16.17
2023-04-15T02:06:43.972Z,17.48
2023-04-15T02:09:48.180Z,17.63
2023-04-15T02:12:52.439Z,16.27
2023-04-15T02:19:02.178Z,16.02
2023-04-15T02:22:07.728Z,15.35
2023-04-15T02:25:12.166Z,16.90
2023-04-15T02:28:16.540Z,16.48
2023-04-15T02:34:27.318Z,14.82
2023-04-15T02:37:32.542Z,16.45
2023-04-15T02:40:37.351Z,16.15
2023-04-15T02:43:41.859Z,15.15
2023-04-15T02:46:52.448Z,17.05
2023-04-15T02:49:58.591Z,15.23
2023-04-15T02:53:03.179Z,15.98
2023-04-15T02:56:08.390Z,14.73
2023-04-15T02:59:13.338Z,13.25
2023-04-15T03:02:17.777Z,15.25
2023-04-15T03:05:25.727Z,14.68
2023-04-15T03:08:30.045Z,14.32
2023-04-15T03:11:36.853Z,14.45
2023-04-15T03:14:41.137Z,13.98
2023-04-15T03:17:45.541Z,14.75
2023-04-15T03:23:53.789Z,13.10
2023-04-15T03:26:58.324Z,15.77
2023-04-15T03:30:03.261Z,15.52
2023-04-15T03:33:08.579Z,14.85
2023-04-15T03:36:12.647Z,15.15
2023-04-15T03:42:21.812Z,16.15
2023-04-15T03:45:26.299Z,16.67
2023-04-15T03:48:31.073Z,16.42
2023-04-15T03:51:35.765Z,18.50
2023-04-15T03:54:40.248Z,19.27
2023-04-15T04:03:53.423Z,18.75
2023-04-15T04:06:57.914Z,19.98
2023-04-15T04:10:03.745Z,19.40
2023-04-15T04:13:08.114Z,19.45
2023-04-15T04:16:12.550Z,21.05
2023-04-15T04:19:19.570Z,20.52
2023-04-15T04:22:24.745Z,21.73
2023-04-15T04:25:29.148Z,21.20
2023-04-15T04:28:35.190Z,20.38
2023-04-15T04:31:39.569Z,20.80
2023-04-15T04:34:43.637Z,19.25
2023-04-15T04:37:48.113Z,19.33
2023-04-15T04:40:52.613Z,18.77
2023-04-15T04:43:56.786Z,18.77
2023-04-15T04:47:01.246Z,20.33
2023-04-15T04:50:06.852Z,18.95
2023-04-15T04:53:11.072Z,20.80
2023-04-15T04:56:15.558Z,21.50
2023-04-15T04:59:19.929Z,21.83
2023-04-15T05:02:27.095Z,23.60
2023-04-15T05:05:31.968Z,24.77
2023-04-15T05:08:36.704Z,24.75
2023-04-15T05:11:41.934Z,23.77
2023-04-15T05:14:46.859Z,25.02
2023-04-15T05:17:51.659Z,28.52
2023-04-15T05:20:56.121Z,27.38
2023-04-15T05:27:04.771Z,26.42
2023-04-15T05:30:10.272Z,28.90
2023-04-15T05:33:16.463Z,29.58
2023-04-15T05:36:21.188Z,30.38
2023-04-15T05:39:26.588Z,29.80
2023-04-15T05:42:30.968Z,30.92
2023-04-15T05:45:35.197Z,32.17
2023-04-15T05:48:39.510Z,30.67
2023-04-15T05:51:43.676Z,33.40
2023-04-15T05:54:47.892Z,32.63
2023-04-15T06:00:56.856Z,33.25
2023-04-15T06:04:01.948Z,33.20
2023-04-15T06:07:06.845Z,32.90
2023-04-15T06:10:11.778Z,33.42
2023-04-15T06:13:17.062Z,32.78
2023-04-15T06:16:21.940Z,32.50
2023-04-15T06:19:26.937Z,33.75
2023-04-15T06:22:31.659Z,33.15
2023-04-15T06:25:36.108Z,31.65
2023-04-15T06:28:40.734Z,32.78
2023-04-15T06:31:45.152Z,32.65
2023-04-15T06:34:49.374Z,31.70
2023-04-15T06:37:53.616Z,32.83
2023-04-15T06:40:57.989Z,32.40
2023-04-15T06:44:02.776Z,33.00
2023-04-15T06:47:07.021Z,33.05
2023-04-15T06:53:16.137Z,33.22
2023-04-15T06:56:20.525Z,34.88
2023-04-15T06:59:25.204Z,34.25
2023-04-15T07:02:29.780Z,33.92
2023-04-15T07:05:34.145Z,35.00
2023-04-15T07:08:39.135Z,37.38
2023-04-15T07:11:43.580Z,37.13
2023-04-15T07:14:47.863Z,38.08
2023-04-15T07:17:52.527Z,36.47
2023-04-15T07:20:56.760Z,37.65
2023-04-15T07:24:01.327Z,41.03
2023-04-15T07:27:05.711Z,39.38
2023-04-15T07:30:11.350Z,38.17
2023-04-15T07:33:15.836Z,39.50
2023-04-15T07:36:20.771Z,38.78
2023-04-15T07:39:24.933Z,43.97
2023-04-15T07:42:29.369Z,44.70
2023-04-15T07:45:33.478Z,44.83
2023-04-15T07:48:37.872Z,47.15
2023-04-15T07:51:42.302Z,49.50
2023-04-15T07:57:51.110Z,51.95
2023-04-15T08:00:55.515Z,50.60
2023-04-15T08:04:00.516Z,52.33
2023-04-15T08:07:06.070Z,53.15
2023-04-15T08:10:11.208Z,50.90
2023-04-15T08:13:16.075Z,52.80
2023-04-15T08:16:22.869Z,54.13
2023-04-15T08:19:27.194Z,52.03
2023-04-15T08:22:31.528Z,54.13
2023-04-15T08:25:36.177Z,53.95
2023-04-15T08:28:42.449Z,52.92
2023-04-15T08:31:47.787Z,55.35
2023-04-15T08:34:54.508Z,52.22
2023-04-15T08:37:58.764Z,51.67
2023-04-15T08:41:25.543Z,53.17
2023-04-15T08:44:33.363Z,53.03
2023-04-15T08:47:41.796Z,54.15
2023-04-15T08:50:47.918Z,52.83
2023-04-15T08:53:52.937Z,52.33
2023-04-15T08:56:58.701Z,52.70
2023-04-15T09:00:05.722Z,49.47
2023-04-15T09:03:11.112Z,49.60
2023-04-15T09:06:18.094Z,48.88
2023-04-15T09:09:22.723Z,50.78
2023-04-15T09:12:27.307Z,50.03
2023-04-15T09:15:33.016Z,48.80
2023-04-15T09:18:39.130Z,50.30
2023-04-15T09:21:47.134Z,48.60
2023-04-15T09:24:51.656Z,50.33
2023-04-15T09:28:01.104Z,49.33
2023-04-15T09:31:05.633Z,49.63
2023-04-15T09:34:10.765Z,50.78
2023-04-15T09:37:31.618Z,52.17
2023-04-15T09:40:39.751Z,48.90
2023-04-15T09:43:43.870Z,48.08
2023-04-15T09:50:00.310Z,48.30
2023-04-15T09:53:04.784Z,46.53
2023-04-15T09:56:10.440Z,48.38
2023-04-15T09:59:14.723Z,48.50
2023-04-15T10:02:22.900Z,46.40
2023-04-15T10:05:29.753Z,46.78
2023-04-15T10:08:35.353Z,44.78
2023-04-15T10:11:40.536Z,44.65
2023-04-15T10:14:49.288Z,44.78
2023-04-15T10:17:54.928Z,41.60
2023-04-15T10:21:01.964Z,41.22
2023-04-15T10:24:07.115Z,39.75
2023-04-15T10:27:11.730Z,38.30
2023-04-15T10:30:17.537Z,39.47
2023-04-15T10:33:24.530Z,38.80
2023-04-15T10:36:28.586Z,37.55
2023-04-15T10:39:40.205Z,37.65
2023-04-15T10:42:44.443Z,36.83
2023-04-15T10:45:48.754Z,36.38
2023-04-15T10:48:54.080Z,34.40
2023-04-15T10:51:59.762Z,33.53
2023-04-15T10:55:24.985Z,33.17
2023-04-15T10:58:43.086Z,29.98
2023-04-15T11:01:56.700Z,29.27
2023-04-15T11:05:01.851Z,29.95
2023-04-15T11:08:06.682Z,29.30
2023-04-15T11:11:11.323Z,29.70
2023-04-15T11:14:16.419Z,26.85
2023-04-15T11:17:31.389Z,26.80
2023-04-15T11:20:41.461Z,28.27
2023-04-15T11:23:49.273Z,26.15
2023-04-15T11:27:02.318Z,26.50
2023-04-15T11:30:27.396Z,25.98
2023-04-15T11:33:31.476Z,24.30
2023-04-15T11:36:36.872Z,23.08
2023-04-15T11:39:42.252Z,21.67
2023-04-15T11:43:11.433Z,20.83
2023-04-15T11:46:15.960Z,21.40
2023-04-15T11:49:31.323Z,20.70
2023-04-15T11:52:35.507Z,20.67
2023-04-15T11:55:45.114Z,18.35
2023-04-15T11:58:54.164Z,17.83
2023-04-15T12:01:58.841Z,17.73
2023-04-15T12:05:05.487Z,17.48
2023-04-15T12:08:09.368Z,17.50
2023-04-15T12:11:14.541Z,16.27
2023-04-15T12:14:24.738Z,16.40
2023-04-15T12:17:29.303Z,17.02
2023-04-15T12:20:54.556Z,16.35
2023-04-15T12:24:04.886Z,16.27
2023-04-15T12:27:12.170Z,15.25
2023-04-15T12:30:16.314Z,16.35
2023-04-15T12:36:25.158Z,16.80
2023-04-15T12:39:34.846Z,17.08
2023-04-15T12:42:39.215Z,18.25
2023-04-15T12:45:44.053Z,16.58
2023-04-15T12:48:48.349Z,14.90
2023-04-15T12:52:02.782Z,14.88
2023-04-15T12:55:07.719Z,14.73
2023-04-15T12:58:12.172Z,13.02
2023-04-15T13:01:16.564Z,12.25
2023-04-15T13:07:26.052Z,14.48
2023-04-15T13:10:31.589Z,14.80
2023-04-15T13:13:35.891Z,16.00
2023-04-15T13:16:40.902Z,17.02
2023-04-15T13:19:45.490Z,18.50
2023-04-15T13:22:49.998Z,18.90
2023-04-15T13:25:54.291Z,17.40
2023-04-15T13:28:58.783Z,19.80
2023-04-15T13:32:03.442Z,19.70
2023-04-15T13:35:08.640Z,19.13
2023-04-15T13:38:12.796Z,18.33
2023-04-15T13:41:17.403Z,18.25
2023-04-15T13:44:22.195Z,18.23
2023-04-15T13:47:26.905Z,18.83
2023-04-15T13:50:31.077Z,16.83
2023-04-15T13:53:39.021Z,18.35
2023-04-15T13:56:43.841Z,18.42
2023-04-15T13:59:48.511Z,18.58
2023-04-15T14:02:53.045Z,18.05
2023-04-15T14:05:58.397Z,18.17
2023-04-15T14:09:07.930Z,18.33
2023-04-15T14:12:12.572Z,19.05
2023-04-15T14:15:17.033Z,19.02
2023-04-15T14:18:21.120Z,18.35
2023-04-15T14:21:27.792Z,18.70
2023-04-15T14:24:32.156Z,18.00
2023-04-15T14:27:36.456Z,16.52
2023-04-15T14:30:40.853Z,15.65
2023-04-15T14:33:46.274Z,16.15
2023-04-15T14:36:53.450Z,16.40
2023-04-15T14:39:57.830Z,16.80
2023-04-15T14:43:02.585Z,17.88
2023-04-15T14:46:08.494Z,14.85
2023-04-15T14:49:13.392Z,16.23
2023-04-15T14:52:17.847Z,16.38
2023-04-15T14:55:22.088Z,17.83
2023-04-15T15:01:30.756Z,18.35
2023-04-15T15:04:36.150Z,16.80
2023-04-15T15:07:41.247Z,17.48
2023-04-15T15:10:49.063Z,16.25
2023-04-15T15:13:54.169Z,17.13
2023-04-15T15:16:58.407Z,15.48
2023-04-15T15:20:03.577Z,16.45
2023-04-15T15:23:08.261Z,17.88
2023-04-15T15:26:12.974Z,15.57
2023-04-15T15:29:17.440Z,16.13
2023-04-15T15:32:21.669Z,18.10
2023-04-15T15:38:30.569Z,17.30
2023-04-15T15:41:35.044Z,17.38
2023-04-15T15:44:39.710Z,16.83
2023-04-15T15:47:44.170Z,16.70
2023-04-15T15:50:48.781Z,17.00
2023-04-15T15:53:53.323Z,16.48
2023-04-15T15:56:58.008Z,16.13
2023-04-15T16:03:11.396Z,15.95
2023-04-15T16:06:16.613Z,15.55
2023-04-15T16:09:21.024Z,14.88
2023-04-15T16:12:25.421Z,14.35
2023-04-15T16:15:29.887Z,15.50
2023-04-15T16:18:35.262Z,15.65
2023-04-15T16:21:39.844Z,15.52
2023-04-15T16:24:44.233Z,15.93
2023-04-15T16:28:00.912Z,16.77
2023-04-15T16:31:07.980Z,16.98
2023-04-15T16:34:12.304Z,16.55
2023-04-15T16:37:16.665Z,17.02
2023-04-15T16:40:20.965Z,15.93
2023-04-15T16:43:26.078Z,15.77
2023-04-15T16:46:30.903Z,16.90
2023-04-15T16:49:35.691Z,16.58
2023-04-15T16:52:40.207Z,17.05
2023-04-15T16:55:44.754Z,17.80
2023-04-15T16:58:49.253Z,18.23
2023-04-15T17:01:55.186Z,17.77
2023-04-15T17:04:59.398Z,16.90
2023-04-15T17:08:04.640Z,17.63
2023-04-15T17:11:09.301Z,17.35
2023-04-15T17:14:13.450Z,17.73
2023-04-15T17:17:17.772Z,18.05
2023-04-15T17:20:22.000Z,17.05
2023-04-15T17:23:27.197Z,18.23
2023-04-15T17:26:31.931Z,18.95
2023-04-15T17:29:36.525Z,17.67
2023-04-15T17:32:41.046Z,17.30
2023-04-15T17:35:45.720Z,17.98
2023-04-15T17:38:50.119Z,17.48
2023-04-15T17:41:54.643Z,17.80
2023-04-15T17:44:59.044Z,19.42
2023-04-15T17:48:03.622Z,18.27
2023-04-15T17:51:08.457Z,20.73
2023-04-15T17:57:16.798Z,19.15
2023-04-15T18:00:21.412Z,19.95
2023-04-15T18:03:26.882Z,18.42
2023-04-15T18:06:31.833Z,17.88
2023-04-15T18:09:36.649Z,17.05
2023-04-15T18:12:40.780Z,18.85
2023-04-15T18:15:46.906Z,19.02
2023-04-15T18:18:52.344Z,17.80
2023-04-15T18:21:56.870Z,16.42
2023-04-15T18:25:04.245Z,18.15
2023-04-15T18:28:10.036Z,18.50
2023-04-15T18:31:14.444Z,18.27
2023-04-15T18:34:18.745Z,19.30
2023-04-15T18:37:23.190Z,19.23
2023-04-15T18:40:27.510Z,20.73
2023-04-15T18:43:32.434Z,18.90
2023-04-15T18:46:36.557Z,21.10
2023-04-15T18:49:41.485Z,19.27
2023-04-15T18:52:46.408Z,19.58
2023-04-15T18:55:50.813Z,19.10
2023-04-15T18:59:19.377Z,20.08
2023-04-15T19:02:20.214Z,19.38
2023-04-15T19:05:25.102Z,19.85
2023-04-15T19:08:30.673Z,20.80
2023-04-15T19:11:34.997Z,19.30
2023-04-15T19:14:39.488Z,18.40
2023-04-15T19:17:43.610Z,18.70
2023-04-15T19:20:50.218Z,19.77
2023-04-15T19:23:57.252Z,18.60
2023-04-15T19:27:02.179Z,19.25
2023-04-15T19:30:08.193Z,19.17
2023-04-15T19:33:12.781Z,18.50
2023-04-15T19:36:18.189Z,18.90
2023-04-15T19:39:23.467Z,18.00
2023-04-15T19:42:27.694Z,18.65
2023-04-15T19:45:32.114Z,17.88
2023-04-15T19:48:36.833Z,20.10
2023-04-15T19:51:42.141Z,19.63
2023-04-15T19:54:46.679Z,20.77
2023-04-15T19:57:51.193Z,20.42
2023-04-15T20:00:56.705Z,21.98
2023-04-15T20:04:03.430Z,22.73
2023-04-15T20:07:08.012Z,22.30
2023-04-15T20:10:13.215Z,24.83
2023-04-15T20:13:17.571Z,23.77
2023-04-15T20:16:22.066Z,23.45
2023-04-15T20:19:26.975Z,22.95
2023-04-15T20:22:32.988Z,24.75
2023-04-15T20:25:37.511Z,22.90
2023-04-15T20:28:41.853Z,23.40
2023-04-15T20:31:46.377Z,24.05
2023-04-15T20:34:51.135Z,23.33
2023-04-15T20:37:55.487Z,23.75
2023-04-15T20:40:59.735Z,21.70
2023-04-15T20:44:04.105Z,22.98
2023-04-15T20:47:08.603Z,22.00
2023-04-15T20:50:13.328Z,21.42
2023-04-15T20:53:17.794Z,21.00
2023-04-15T20:56:21.973Z,20.70
2023-04-15T20:59:27.306Z,21.85
2023-04-15T21:02:31.788Z,21.02
2023-04-15T21:05:36.309Z,20.98
2023-04-15T21:08:40.845Z,21.33
2023-04-15T21:14:56.768Z,21.20
2023-04-15T21:18:01.291Z,21.30
2023-04-15T21:21:06.589Z,20.02
2023-04-15T21:24:10.893Z,20.60
2023-04-15T21:27:15.127Z,20.98
2023-04-15T21:30:19.557Z,20.52
2023-04-15T21:33:24.072Z,21.02
2023-04-15T21:36:28.641Z,20.63
2023-04-15T21:39:32.922Z,21.15
2023-04-15T21:42:37.479Z,20.23
2023-04-15T21:45:43.555Z,18.88
2023-04-15T21:49:08.190Z,20.88
2023-04-15T21:52:12.679Z,19.70
2023-04-15T21:55:17.179Z,21.23
2023-04-15T21:58:21.619Z,19.55
2023-04-15T22:01:26.833Z,19.08
2023-04-15T22:04:31.223Z,20.00
2023-04-15T22:07:36.321Z,19.67
2023-04-15T22:10:40.854Z,21.08
2023-04-15T22:13:45.067Z,19.35
2023-04-15T22:16:49.368Z,20.08
2023-04-15T22:19:54.333Z,20.15
2023-04-15T22:22:58.633Z,20.17
2023-04-15T22:26:03.081Z,20.23
2023-04-15T22:29:07.763Z,19.42
2023-04-15T22:32:12.402Z,20.35
2023-04-15T22:35:17.069Z,20.60
2023-04-15T22:38:21.559Z,20.50
2023-04-15T22:44:30.122Z,19.50
2023-04-15T22:47:34.947Z,20.25
2023-04-15T22:50:39.246Z,20.17
2023-04-15T22:56:47.208Z,15.40
2023-04-15T22:59:51.569Z,21.63
2023-04-15T23:02:56.205Z,20.63
2023-04-15T23:06:01.934Z,19.73
2023-04-15T23:09:06.483Z,20.70
2023-04-15T23:12:10.842Z,21.38
2023-04-15T23:15:15.850Z,21.42
2023-04-15T23:18:20.416Z,21.42
2023-04-15T23:21:26.123Z,20.63
2023-04-15T23:24:30.807Z,21.90
2023-04-15T23:27:35.830Z,19.98
2023-04-15T23:30:40.050Z,20.70
2023-04-15T23:33:44.263Z,21.65
2023-04-15T23:36:48.601Z,21.05
2023-04-15T23:39:52.969Z,20.33
2023-04-15T23:42:57.562Z,21.05
2023-04-15T23:46:02.144Z,21.65
2023-04-15T23:49:06.383Z,21.50
2023-04-15T23:52:10.829Z,21.83
2023-04-15T23:55:15.401Z,22.15
2023-04-15T23:58:19.601Z,22.73
